Аэропорт: Богашево. Томск

ICAO: UNTT

METAR:
2024-07-24 15:00:00
UNTT 241500Z 15002MPS CAVOK 22/19 Q1003 R21/////// NOSIG RMK QFE737
TAF:
2024-07-24 14:00:00
TAF UNTT 241400Z 2415/2424 15003G08MPS 9999 SCT040CB